sensor_id;sensor_type;location;lat;lon;timestamp;temperature;humidity
25366;DHT22;13315;48.274;-1.900;2022-11-12T00:00:52;15.20;84.50
25366;DHT22;13315;48.274;-1.900;2022-11-12T00:03:19;15.20;84.40
25366;DHT22;13315;48.274;-1.900;2022-11-12T00:05:44;15.10;84.30
25366;DHT22;13315;48.274;-1.900;2022-11-12T00:08:11;15.10;84.40
25366;DHT22;13315;48.274;-1.900;2022-11-12T00:10:37;15.10;84.20
25366;DHT22;13315;48.274;-1.900;2022-11-12T00:13:03;15.10;84.30
25366;DHT22;13315;48.274;-1.900;2022-11-12T00:15:28;15.10;84.20
25366;DHT22;13315;48.274;-1.900;2022-11-12T00:17:54;15.10;84.20
25366;DHT22;13315;48.274;-1.900;2022-11-12T00:20:20;15.10;84.20
25366;DHT22;13315;48.274;-1.900;2022-11-12T00:22:46;15.10;84.10
25366;DHT22;13315;48.274;-1.900;2022-11-12T00:25:12;15.10;84.10
25366;DHT22;13315;48.274;-1.900;2022-11-12T00:27:38;15.00;84.00
25366;DHT22;13315;48.274;-1.900;2022-11-12T00:30:04;15.10;84.00
25366;DHT22;13315;48.274;-1.900;2022-11-12T00:32:30;15.10;84.10
25366;DHT22;13315;48.274;-1.900;2022-11-12T00:34:56;15.00;84.00
25366;DHT22;13315;48.274;-1.900;2022-11-12T00:37:22;15.00;84.00
25366;DHT22;13315;48.274;-1.900;2022-11-12T00:39:49;15.00;84.00
25366;DHT22;13315;48.274;-1.900;2022-11-12T00:42:15;15.00;83.90
25366;DHT22;13315;48.274;-1.900;2022-11-12T00:44:40;15.00;84.00
25366;DHT22;13315;48.274;-1.900;2022-11-12T00:47:06;15.00;84.00
25366;DHT22;13315;48.274;-1.900;2022-11-12T00:49:32;15.00;83.90
25366;DHT22;13315;48.274;-1.900;2022-11-12T00:51:57;15.00;83.90
25366;DHT22;13315;48.274;-1.900;2022-11-12T00:54:23;15.00;83.80
25366;DHT22;13315;48.274;-1.900;2022-11-12T00:56:49;15.00;83.90
25366;DHT22;13315;48.274;-1.900;2022-11-12T00:59:15;15.00;84.30
25366;DHT22;13315;48.274;-1.900;2022-11-12T01:01:41;15.00;83.80
25366;DHT22;13315;48.274;-1.900;2022-11-12T01:04:07;15.00;83.90
25366;DHT22;13315;48.274;-1.900;2022-11-12T01:06:33;15.00;83.90
25366;DHT22;13315;48.274;-1.900;2022-11-12T01:08:59;15.00;83.90
25366;DHT22;13315;48.274;-1.900;2022-11-12T01:11:27;15.00;83.90
25366;DHT22;13315;48.274;-1.900;2022-11-12T01:14:05;14.90;83.80
25366;DHT22;13315;48.274;-1.900;2022-11-12T01:16:34;14.90;83.80
25366;DHT22;13315;48.274;-1.900;2022-11-12T01:19:03;14.90;83.80
25366;DHT22;13315;48.274;-1.900;2022-11-12T01:21:31;14.90;83.80
25366;DHT22;13315;48.274;-1.900;2022-11-12T01:23:59;14.90;83.90
25366;DHT22;13315;48.274;-1.900;2022-11-12T01:26:25;14.90;83.90
25366;DHT22;13315;48.274;-1.900;2022-11-12T01:28:53;14.90;83.80
25366;DHT22;13315;48.274;-1.900;2022-11-12T01:33:56;14.90;83.90
25366;DHT22;13315;48.274;-1.900;2022-11-12T01:36:23;14.90;83.90
25366;DHT22;13315;48.274;-1.900;2022-11-12T01:38:49;14.90;83.90
25366;DHT22;13315;48.274;-1.900;2022-11-12T01:41:19;14.90;83.90
25366;DHT22;13315;48.274;-1.900;2022-11-12T01:43:45;14.90;83.90
25366;DHT22;13315;48.274;-1.900;2022-11-12T01:46:27;14.80;83.80
25366;DHT22;13315;48.274;-1.900;2022-11-12T01:48:57;14.80;83.90
25366;DHT22;13315;48.274;-1.900;2022-11-12T01:51:29;14.80;83.90
25366;DHT22;13315;48.274;-1.900;2022-11-12T01:53:58;14.80;83.90
25366;DHT22;13315;48.274;-1.900;2022-11-12T01:56:27;14.80;83.80
25366;DHT22;13315;48.274;-1.900;2022-11-12T01:59:01;14.80;83.90
25366;DHT22;13315;48.274;-1.900;2022-11-12T02:01:28;14.80;83.80
25366;DHT22;13315;48.274;-1.900;2022-11-12T02:03:55;14.80;83.90
25366;DHT22;13315;48.274;-1.900;2022-11-12T02:06:21;14.80;83.90
25366;DHT22;13315;48.274;-1.900;2022-11-12T02:08:48;14.80;83.90
25366;DHT22;13315;48.274;-1.900;2022-11-12T02:11:19;14.80;84.00
25366;DHT22;13315;48.274;-1.900;2022-11-12T02:13:46;14.80;84.00
25366;DHT22;13315;48.274;-1.900;2022-11-12T02:16:35;14.80;83.90
25366;DHT22;13315;48.274;-1.900;2022-11-12T02:19:02;14.80;83.90
25366;DHT22;13315;48.274;-1.900;2022-11-12T02:21:29;14.80;83.90
25366;DHT22;13315;48.274;-1.900;2022-11-12T02:24:29;14.80;84.00
25366;DHT22;13315;48.274;-1.900;2022-11-12T02:26:54;14.80;83.90
25366;DHT22;13315;48.274;-1.900;2022-11-12T02:29:21;14.70;83.90
25366;DHT22;13315;48.274;-1.900;2022-11-12T02:31:47;14.80;84.00
25366;DHT22;13315;48.274;-1.900;2022-11-12T02:34:13;14.80;84.00
25366;DHT22;13315;48.274;-1.900;2022-11-12T02:36:38;14.70;83.90
25366;DHT22;13315;48.274;-1.900;2022-11-12T02:39:04;14.70;84.00
25366;DHT22;13315;48.274;-1.900;2022-11-12T02:41:30;14.80;83.90
25366;DHT22;13315;48.274;-1.900;2022-11-12T02:43:56;14.70;83.90
25366;DHT22;13315;48.274;-1.900;2022-11-12T02:46:22;14.80;83.80
25366;DHT22;13315;48.274;-1.900;2022-11-12T02:48:48;14.70;83.90
25366;DHT22;13315;48.274;-1.900;2022-11-12T02:51:14;14.70;83.90
25366;DHT22;13315;48.274;-1.900;2022-11-12T02:53:39;14.70;83.90
25366;DHT22;13315;48.274;-1.900;2022-11-12T02:56:05;14.70;83.80
25366;DHT22;13315;48.274;-1.900;2022-11-12T02:58:31;14.70;83.90
25366;DHT22;13315;48.274;-1.900;2022-11-12T03:00:58;14.70;83.80
25366;DHT22;13315;48.274;-1.900;2022-11-12T03:03:24;14.70;83.80
25366;DHT22;13315;48.274;-1.900;2022-11-12T03:05:58;14.70;83.70
25366;DHT22;13315;48.274;-1.900;2022-11-12T03:08:24;14.70;83.70
25366;DHT22;13315;48.274;-1.900;2022-11-12T03:10:50;14.70;83.80
25366;DHT22;13315;48.274;-1.900;2022-11-12T03:13:16;14.70;83.80
25366;DHT22;13315;48.274;-1.900;2022-11-12T03:15:42;14.70;83.70
25366;DHT22;13315;48.274;-1.900;2022-11-12T03:18:08;14.70;83.60
25366;DHT22;13315;48.274;-1.900;2022-11-12T03:20:34;14.70;83.60
25366;DHT22;13315;48.274;-1.900;2022-11-12T03:23:02;14.70;83.60
25366;DHT22;13315;48.274;-1.900;2022-11-12T03:25:28;14.70;83.70
25366;DHT22;13315;48.274;-1.900;2022-11-12T03:28:06;14.70;84.20
25366;DHT22;13315;48.274;-1.900;2022-11-12T03:30:37;14.70;83.70
25366;DHT22;13315;48.274;-1.900;2022-11-12T03:33:04;14.70;84.20
25366;DHT22;13315;48.274;-1.900;2022-11-12T03:35:31;14.70;83.60
25366;DHT22;13315;48.274;-1.900;2022-11-12T03:37:58;14.70;83.60
25366;DHT22;13315;48.274;-1.900;2022-11-12T03:40:24;14.70;83.70
25366;DHT22;13315;48.274;-1.900;2022-11-12T03:42:50;14.70;83.70
25366;DHT22;13315;48.274;-1.900;2022-11-12T03:45:18;14.70;83.70
25366;DHT22;13315;48.274;-1.900;2022-11-12T03:47:45;14.70;83.70
25366;DHT22;13315;48.274;-1.900;2022-11-12T03:50:13;14.60;83.80
25366;DHT22;13315;48.274;-1.900;2022-11-12T03:52:46;14.70;83.70
25366;DHT22;13315;48.274;-1.900;2022-11-12T03:55:14;14.70;83.70
25366;DHT22;13315;48.274;-1.900;2022-11-12T03:57:40;14.70;83.80
25366;DHT22;13315;48.274;-1.900;2022-11-12T04:00:07;14.70;83.70
25366;DHT22;13315;48.274;-1.900;2022-11-12T04:02:33;14.70;83.60
25366;DHT22;13315;48.274;-1.900;2022-11-12T04:04:59;14.60;83.60
25366;DHT22;13315;48.274;-1.900;2022-11-12T04:07:44;14.70;83.70
25366;DHT22;13315;48.274;-1.900;2022-11-12T04:10:28;14.60;83.60
25366;DHT22;13315;48.274;-1.900;2022-11-12T04:12:55;14.60;83.70
25366;DHT22;13315;48.274;-1.900;2022-11-12T04:15:39;14.60;83.70
25366;DHT22;13315;48.274;-1.900;2022-11-12T04:18:05;14.60;83.80
25366;DHT22;13315;48.274;-1.900;2022-11-12T04:20:49;14.60;83.70
25366;DHT22;13315;48.274;-1.900;2022-11-12T04:23:33;14.60;83.80
25366;DHT22;13315;48.274;-1.900;2022-11-12T04:25:59;14.60;83.70
25366;DHT22;13315;48.274;-1.900;2022-11-12T04:28:43;14.60;83.70
25366;DHT22;13315;48.274;-1.900;2022-11-12T04:31:29;14.60;83.60
25366;DHT22;13315;48.274;-1.900;2022-11-12T04:33:55;14.60;84.30
25366;DHT22;13315;48.274;-1.900;2022-11-12T04:36:40;14.60;83.60
25366;DHT22;13315;48.274;-1.900;2022-11-12T04:39:06;14.60;83.80
25366;DHT22;13315;48.274;-1.900;2022-11-12T04:41:32;14.60;83.80
25366;DHT22;13315;48.274;-1.900;2022-11-12T04:44:16;14.60;83.80
25366;DHT22;13315;48.274;-1.900;2022-11-12T04:47:11;14.60;83.80
25366;DHT22;13315;48.274;-1.900;2022-11-12T04:49:37;14.60;83.70
25366;DHT22;13315;48.274;-1.900;2022-11-12T04:52:02;14.60;83.60
25366;DHT22;13315;48.274;-1.900;2022-11-12T04:54:31;14.60;83.50
25366;DHT22;13315;48.274;-1.900;2022-11-12T04:56:57;14.60;83.60
25366;DHT22;13315;48.274;-1.900;2022-11-12T04:59:23;14.60;83.70
25366;DHT22;13315;48.274;-1.900;2022-11-12T05:01:49;14.60;83.60
25366;DHT22;13315;48.274;-1.900;2022-11-12T05:04:15;14.60;83.60
25366;DHT22;13315;48.274;-1.900;2022-11-12T05:06:41;14.60;83.70
25366;DHT22;13315;48.274;-1.900;2022-11-12T05:09:20;14.60;83.70
25366;DHT22;13315;48.274;-1.900;2022-11-12T05:11:46;14.60;83.70
25366;DHT22;13315;48.274;-1.900;2022-11-12T05:14:12;14.60;83.70
25366;DHT22;13315;48.274;-1.900;2022-11-12T05:16:38;14.60;83.70
25366;DHT22;13315;48.274;-1.900;2022-11-12T05:19:04;14.60;83.60
25366;DHT22;13315;48.274;-1.900;2022-11-12T05:21:30;14.60;83.60
25366;DHT22;13315;48.274;-1.900;2022-11-12T05:24:15;14.60;83.60
25366;DHT22;13315;48.274;-1.900;2022-11-12T05:26:41;14.60;83.50
25366;DHT22;13315;48.274;-1.900;2022-11-12T05:29:06;14.60;83.60
25366;DHT22;13315;48.274;-1.900;2022-11-12T05:31:33;14.60;83.60
25366;DHT22;13315;48.274;-1.900;2022-11-12T05:33:58;14.60;83.70
25366;DHT22;13315;48.274;-1.900;2022-11-12T05:36:24;14.60;83.70
25366;DHT22;13315;48.274;-1.900;2022-11-12T05:38:50;14.60;83.60
25366;DHT22;13315;48.274;-1.900;2022-11-12T05:41:16;14.60;83.60
25366;DHT22;13315;48.274;-1.900;2022-11-12T05:43:42;14.60;83.60
25366;DHT22;13315;48.274;-1.900;2022-11-12T05:46:07;14.60;83.70
25366;DHT22;13315;48.274;-1.900;2022-11-12T05:48:33;14.50;83.60
25366;DHT22;13315;48.274;-1.900;2022-11-12T05:50:59;14.50;83.70
25366;DHT22;13315;48.274;-1.900;2022-11-12T05:53:25;14.50;83.60
25366;DHT22;13315;48.274;-1.900;2022-11-12T05:55:50;14.50;83.60
25366;DHT22;13315;48.274;-1.900;2022-11-12T05:58:17;14.50;83.70
25366;DHT22;13315;48.274;-1.900;2022-11-12T06:00:43;14.50;83.60
25366;DHT22;13315;48.274;-1.900;2022-11-12T06:03:09;14.50;83.70
25366;DHT22;13315;48.274;-1.900;2022-11-12T06:05:35;14.60;83.70
25366;DHT22;13315;48.274;-1.900;2022-11-12T06:08:02;14.50;83.70
25366;DHT22;13315;48.274;-1.900;2022-11-12T06:10:28;14.50;83.70
25366;DHT22;13315;48.274;-1.900;2022-11-12T06:12:54;14.50;83.70
25366;DHT22;13315;48.274;-1.900;2022-11-12T06:15:20;14.50;83.70
25366;DHT22;13315;48.274;-1.900;2022-11-12T06:17:46;14.50;83.70
25366;DHT22;13315;48.274;-1.900;2022-11-12T06:20:12;14.50;83.70
25366;DHT22;13315;48.274;-1.900;2022-11-12T06:22:38;14.50;83.80
25366;DHT22;13315;48.274;-1.900;2022-11-12T06:25:04;14.50;83.80
25366;DHT22;13315;48.274;-1.900;2022-11-12T06:27:30;14.50;83.70
25366;DHT22;13315;48.274;-1.900;2022-11-12T06:29:56;14.50;83.70
25366;DHT22;13315;48.274;-1.900;2022-11-12T06:32:23;14.50;83.80
25366;DHT22;13315;48.274;-1.900;2022-11-12T06:34:49;14.50;83.80
25366;DHT22;13315;48.274;-1.900;2022-11-12T06:37:15;14.50;83.80
25366;DHT22;13315;48.274;-1.900;2022-11-12T06:39:41;14.40;83.80
25366;DHT22;13315;48.274;-1.900;2022-11-12T06:42:07;14.40;83.80
25366;DHT22;13315;48.274;-1.900;2022-11-12T06:44:32;14.50;83.80
25366;DHT22;13315;48.274;-1.900;2022-11-12T06:46:58;14.40;83.90
25366;DHT22;13315;48.274;-1.900;2022-11-12T06:49:24;14.40;83.90
25366;DHT22;13315;48.274;-1.900;2022-11-12T06:51:50;14.40;83.90
25366;DHT22;13315;48.274;-1.900;2022-11-12T06:54:16;14.40;83.80
25366;DHT22;13315;48.274;-1.900;2022-11-12T06:56:41;14.40;83.80
25366;DHT22;13315;48.274;-1.900;2022-11-12T06:59:07;14.40;83.80
25366;DHT22;13315;48.274;-1.900;2022-11-12T07:01:33;14.40;83.80
25366;DHT22;13315;48.274;-1.900;2022-11-12T07:03:59;14.40;83.90
25366;DHT22;13315;48.274;-1.900;2022-11-12T07:06:24;14.50;83.90
25366;DHT22;13315;48.274;-1.900;2022-11-12T07:08:50;14.40;84.00
25366;DHT22;13315;48.274;-1.900;2022-11-12T07:11:17;14.40;83.80
25366;DHT22;13315;48.274;-1.900;2022-11-12T07:13:44;14.40;83.90
25366;DHT22;13315;48.274;-1.900;2022-11-12T07:16:11;14.40;83.80
25366;DHT22;13315;48.274;-1.900;2022-11-12T07:18:38;14.40;83.80
25366;DHT22;13315;48.274;-1.900;2022-11-12T07:21:11;14.40;83.80
25366;DHT22;13315;48.274;-1.900;2022-11-12T07:23:37;14.40;83.80
25366;DHT22;13315;48.274;-1.900;2022-11-12T07:26:15;14.40;83.80
25366;DHT22;13315;48.274;-1.900;2022-11-12T07:28:42;14.40;83.80
25366;DHT22;13315;48.274;-1.900;2022-11-12T07:31:13;14.50;83.80
25366;DHT22;13315;48.274;-1.900;2022-11-12T07:33:39;14.40;83.80
25366;DHT22;13315;48.274;-1.900;2022-11-12T07:36:10;14.40;83.90
25366;DHT22;13315;48.274;-1.900;2022-11-12T07:38:38;14.40;83.90
25366;DHT22;13315;48.274;-1.900;2022-11-12T07:41:13;14.40;83.90
25366;DHT22;13315;48.274;-1.900;2022-11-12T07:43:40;14.40;83.90
25366;DHT22;13315;48.274;-1.900;2022-11-12T07:46:09;14.40;83.80
25366;DHT22;13315;48.274;-1.900;2022-11-12T07:48:35;14.40;83.80
25366;DHT22;13315;48.274;-1.900;2022-11-12T07:51:03;14.40;83.70
25366;DHT22;13315;48.274;-1.900;2022-11-12T07:53:29;14.40;84.30
25366;DHT22;13315;48.274;-1.900;2022-11-12T07:55:58;14.50;83.70
25366;DHT22;13315;48.274;-1.900;2022-11-12T07:58:24;14.50;83.70
25366;DHT22;13315;48.274;-1.900;2022-11-12T08:00:50;14.50;83.70
25366;DHT22;13315;48.274;-1.900;2022-11-12T08:03:17;14.50;83.70
25366;DHT22;13315;48.274;-1.900;2022-11-12T08:05:43;14.50;83.70
25366;DHT22;13315;48.274;-1.900;2022-11-12T08:08:08;14.50;83.80
25366;DHT22;13315;48.274;-1.900;2022-11-12T08:10:35;14.50;83.80
25366;DHT22;13315;48.274;-1.900;2022-11-12T08:13:01;14.50;83.80
25366;DHT22;13315;48.274;-1.900;2022-11-12T08:15:27;14.50;84.00
25366;DHT22;13315;48.274;-1.900;2022-11-12T08:17:53;14.50;84.30
25366;DHT22;13315;48.274;-1.900;2022-11-12T08:20:19;14.50;83.90
25366;DHT22;13315;48.274;-1.900;2022-11-12T08:22:45;14.50;83.90
